Hesperia, CA (92344)

7:13 PM PDT on June 02, 2015 (GMT -0700)
Maple-Ranchero Area/Hesperia | | Change Station
CLOSE
Current Station
Personal Weather Station
Location: Hesperia, CA
Elevation: 3486 ft
Nearby Weather Stations

Elev 3486 ft 34.39 °N, 117.34 °W | Updated 8 seconds ago

Clear
Clear
70.2 °F
Feels Like 74 °F
N
22.5
Wind Variable Wind from SSW
Gusts 22.5 mph

Today
High -- | Low -- °F
--% Chance of Precip.
Yesterday
High -- | Low -- °F
Precip. -- in
5:37 AM 7:57 PM
Full, 100% visible
Pressure 29.91 in
Visibility 10.0 miles
Clouds Clear
Heat Index 74 °F
Dew Point 23 °F
Humidity 17%
Rainfall 0.00 in
Snow Depth Not available.
UV 1 out of 12
Pollen 4.60 out of 12
Air Quality Not available.
Flu Activity Sporadic
METAR KVCV 030155Z AUTO 22014G20KT 10SM CLR 26/01 A2991 RMK AO2

More Conditions Fewer Conditions

Pressure 29.91 in
Visibility 10.0 miles
Clouds Clear
Heat Index 74 °F
Dew Point 23 °F
Humidity 17%
Rainfall 0.00 in
Snow Depth Not available.
UV 1 out of 12
Pollen 4.60 out of 12
Air Quality Not available.
Flu Activity Sporadic
METAR KVCV 030155Z AUTO 22014G20KT 10SM CLR 26/01 A2991 RMK AO2

More Conditions Fewer Conditions

10-Day Weather Forecast

×

Almanac

Astronomy

Jun. 02, 2015 Rise Set
Actual Time
Civil Twilight
Nautical Twilight
Astronomical Twilight
Moon
Length of Visible Light
Length of Day
Tomorrow will be .
, % of the Moon is Illuminated

Today's Extremes

State Highs State Lows

Community

WunderPhotos

Upload Photos

1,826,108 photos uploaded!

WunderBlogs® & News

Nearby

Air Quality

  Air Quality AQ Index Pollutant
Not available.

Snow Depth

Station Depth Elevation

Earthquake Activity

City Distance Mag. Time & Date
Minimum magnitude displayed is 2.5.

Coastal Water Temperatures

Place Temperature

Stations

Nearby Weather Stations

Station Location Temp. Windchill Dew Point Humidity Wind Precip. Elev Updated Type